sensor_id;sensor_type;location;lat;lon;timestamp;P1;durP1;ratioP1;P2;durP2;ratioP2
24261;SDS011;12385;51.412;5.540;2024-02-28T00:00:36;92.22;;;44.67;;
24261;SDS011;12385;51.412;5.540;2024-02-28T00:03:02;88.43;;;43.10;;
24261;SDS011;12385;51.412;5.540;2024-02-28T00:05:28;89.95;;;43.45;;
24261;SDS011;12385;51.412;5.540;2024-02-28T00:07:56;92.10;;;44.35;;
24261;SDS011;12385;51.412;5.540;2024-02-28T00:10:25;100.55;;;44.53;;
24261;SDS011;12385;51.412;5.540;2024-02-28T00:12:51;102.88;;;46.95;;
24261;SDS011;12385;51.412;5.540;2024-02-28T00:15:21;101.07;;;45.88;;
24261;SDS011;12385;51.412;5.540;2024-02-28T00:17:57;106.03;;;46.28;;
24261;SDS011;12385;51.412;5.540;2024-02-28T00:20:26;91.22;;;44.42;;
24261;SDS011;12385;51.412;5.540;2024-02-28T00:22:57;93.35;;;44.60;;
24261;SDS011;12385;51.412;5.540;2024-02-28T00:25:25;91.25;;;43.50;;
24261;SDS011;12385;51.412;5.540;2024-02-28T00:27:55;93.23;;;44.83;;
24261;SDS011;12385;51.412;5.540;2024-02-28T00:30:21;96.70;;;46.70;;
24261;SDS011;12385;51.412;5.540;2024-02-28T00:32:59;120.32;;;51.65;;
24261;SDS011;12385;51.412;5.540;2024-02-28T00:35:25;109.47;;;51.50;;
24261;SDS011;12385;51.412;5.540;2024-02-28T00:37:51;111.40;;;49.15;;
24261;SDS011;12385;51.412;5.540;2024-02-28T00:40:20;106.18;;;47.40;;
24261;SDS011;12385;51.412;5.540;2024-02-28T00:42:46;119.68;;;52.20;;
24261;SDS011;12385;51.412;5.540;2024-02-28T00:45:13;142.52;;;55.47;;
24261;SDS011;12385;51.412;5.540;2024-02-28T00:47:38;112.88;;;50.72;;
24261;SDS011;12385;51.412;5.540;2024-02-28T00:50:05;126.20;;;53.78;;
24261;SDS011;12385;51.412;5.540;2024-02-28T00:52:31;113.45;;;51.08;;
24261;SDS011;12385;51.412;5.540;2024-02-28T00:54:57;121.32;;;53.05;;
24261;SDS011;12385;51.412;5.540;2024-02-28T00:57:26;121.40;;;54.88;;
24261;SDS011;12385;51.412;5.540;2024-02-28T00:59:55;118.55;;;55.15;;
24261;SDS011;12385;51.412;5.540;2024-02-28T01:02:21;127.28;;;55.40;;
24261;SDS011;12385;51.412;5.540;2024-02-28T01:04:56;134.23;;;57.10;;
24261;SDS011;12385;51.412;5.540;2024-02-28T01:07:26;127.88;;;55.05;;
24261;SDS011;12385;51.412;5.540;2024-02-28T01:09:51;129.25;;;55.00;;
24261;SDS011;12385;51.412;5.540;2024-02-28T01:12:21;138.77;;;59.85;;
24261;SDS011;12385;51.412;5.540;2024-02-28T01:14:51;137.55;;;58.63;;
24261;SDS011;12385;51.412;5.540;2024-02-28T01:17:21;143.45;;;60.13;;
24261;SDS011;12385;51.412;5.540;2024-02-28T01:19:51;153.18;;;61.05;;
24261;SDS011;12385;51.412;5.540;2024-02-28T01:22:20;140.85;;;60.10;;
24261;SDS011;12385;51.412;5.540;2024-02-28T01:24:46;133.15;;;58.17;;
24261;SDS011;12385;51.412;5.540;2024-02-28T01:27:12;124.60;;;55.95;;
24261;SDS011;12385;51.412;5.540;2024-02-28T01:29:37;119.57;;;54.97;;
24261;SDS011;12385;51.412;5.540;2024-02-28T01:32:04;138.82;;;58.60;;
24261;SDS011;12385;51.412;5.540;2024-02-28T01:34:30;132.13;;;58.88;;
24261;SDS011;12385;51.412;5.540;2024-02-28T01:36:55;129.60;;;59.13;;
24261;SDS011;12385;51.412;5.540;2024-02-28T01:39:24;135.98;;;58.85;;
24261;SDS011;12385;51.412;5.540;2024-02-28T01:41:54;123.15;;;56.70;;
24261;SDS011;12385;51.412;5.540;2024-02-28T01:44:20;124.18;;;58.10;;
24261;SDS011;12385;51.412;5.540;2024-02-28T01:46:46;130.90;;;59.40;;
24261;SDS011;12385;51.412;5.540;2024-02-28T01:49:12;138.02;;;59.33;;
24261;SDS011;12385;51.412;5.540;2024-02-28T01:51:39;153.20;;;63.03;;
24261;SDS011;12385;51.412;5.540;2024-02-28T01:54:06;162.23;;;64.57;;
24261;SDS011;12385;51.412;5.540;2024-02-28T01:56:32;163.05;;;64.18;;
24261;SDS011;12385;51.412;5.540;2024-02-28T01:58:59;135.85;;;56.85;;
24261;SDS011;12385;51.412;5.540;2024-02-28T02:01:26;145.20;;;56.97;;
24261;SDS011;12385;51.412;5.540;2024-02-28T02:03:53;147.40;;;55.45;;
24261;SDS011;12385;51.412;5.540;2024-02-28T02:06:20;155.00;;;58.75;;
24261;SDS011;12385;51.412;5.540;2024-02-28T02:08:48;116.90;;;43.47;;
24261;SDS011;12385;51.412;5.540;2024-02-28T02:11:15;177.20;;;61.53;;
24261;SDS011;12385;51.412;5.540;2024-02-28T02:13:50;147.75;;;56.60;;
24261;SDS011;12385;51.412;5.540;2024-02-28T02:16:17;132.85;;;55.10;;
24261;SDS011;12385;51.412;5.540;2024-02-28T02:18:44;143.57;;;55.85;;
24261;SDS011;12385;51.412;5.540;2024-02-28T02:21:11;132.75;;;53.60;;
24261;SDS011;12385;51.412;5.540;2024-02-28T02:26:06;122.68;;;51.33;;
24261;SDS011;12385;51.412;5.540;2024-02-28T02:28:33;134.10;;;54.95;;
24261;SDS011;12385;51.412;5.540;2024-02-28T02:30:58;131.63;;;54.50;;
24261;SDS011;12385;51.412;5.540;2024-02-28T02:33:24;125.95;;;52.67;;
24261;SDS011;12385;51.412;5.540;2024-02-28T02:35:51;118.88;;;50.47;;
24261;SDS011;12385;51.412;5.540;2024-02-28T02:38:21;128.68;;;54.97;;
24261;SDS011;12385;51.412;5.540;2024-02-28T02:40:50;118.40;;;52.08;;
24261;SDS011;12385;51.412;5.540;2024-02-28T02:43:16;117.30;;;53.60;;
24261;SDS011;12385;51.412;5.540;2024-02-28T02:45:42;120.45;;;52.80;;
24261;SDS011;12385;51.412;5.540;2024-02-28T02:48:08;132.80;;;57.03;;
24261;SDS011;12385;51.412;5.540;2024-02-28T02:50:34;126.65;;;56.50;;
24261;SDS011;12385;51.412;5.540;2024-02-28T02:53:00;128.95;;;56.13;;
24261;SDS011;12385;51.412;5.540;2024-02-28T02:55:26;146.88;;;58.53;;
24261;SDS011;12385;51.412;5.540;2024-02-28T02:57:52;129.15;;;55.83;;
24261;SDS011;12385;51.412;5.540;2024-02-28T03:00:19;148.38;;;60.50;;
24261;SDS011;12385;51.412;5.540;2024-02-28T03:02:45;156.10;;;60.72;;
24261;SDS011;12385;51.412;5.540;2024-02-28T03:05:12;132.40;;;56.20;;
24261;SDS011;12385;51.412;5.540;2024-02-28T03:07:38;139.07;;;59.33;;
24261;SDS011;12385;51.412;5.540;2024-02-28T03:10:05;160.98;;;64.22;;
24261;SDS011;12385;51.412;5.540;2024-02-28T03:12:31;151.77;;;61.85;;
24261;SDS011;12385;51.412;5.540;2024-02-28T03:14:57;164.95;;;64.80;;
24261;SDS011;12385;51.412;5.540;2024-02-28T03:17:23;167.52;;;65.07;;
24261;SDS011;12385;51.412;5.540;2024-02-28T03:19:49;155.45;;;62.10;;
24261;SDS011;12385;51.412;5.540;2024-02-28T03:22:15;145.55;;;61.63;;
24261;SDS011;12385;51.412;5.540;2024-02-28T03:24:40;148.02;;;62.88;;
24261;SDS011;12385;51.412;5.540;2024-02-28T03:27:06;158.13;;;64.30;;
24261;SDS011;12385;51.412;5.540;2024-02-28T03:29:33;159.88;;;62.33;;
24261;SDS011;12385;51.412;5.540;2024-02-28T03:31:59;174.10;;;65.72;;
24261;SDS011;12385;51.412;5.540;2024-02-28T03:34:24;132.52;;;57.70;;
24261;SDS011;12385;51.412;5.540;2024-02-28T03:36:50;149.75;;;62.63;;
24261;SDS011;12385;51.412;5.540;2024-02-28T03:39:16;203.40;;;70.35;;
24261;SDS011;12385;51.412;5.540;2024-02-28T03:41:42;211.48;;;75.15;;
24261;SDS011;12385;51.412;5.540;2024-02-28T03:44:08;211.50;;;75.03;;
24261;SDS011;12385;51.412;5.540;2024-02-28T03:46:34;219.40;;;74.85;;
24261;SDS011;12385;51.412;5.540;2024-02-28T03:48:59;223.18;;;75.38;;
24261;SDS011;12385;51.412;5.540;2024-02-28T03:51:25;208.63;;;72.75;;
24261;SDS011;12385;51.412;5.540;2024-02-28T03:53:51;218.32;;;76.60;;
24261;SDS011;12385;51.412;5.540;2024-02-28T03:56:24;211.90;;;74.05;;
24261;SDS011;12385;51.412;5.540;2024-02-28T03:58:52;178.82;;;66.60;;
24261;SDS011;12385;51.412;5.540;2024-02-28T04:01:19;202.65;;;74.82;;
24261;SDS011;12385;51.412;5.540;2024-02-28T04:03:45;195.38;;;71.07;;
24261;SDS011;12385;51.412;5.540;2024-02-28T04:06:11;192.13;;;71.70;;
24261;SDS011;12385;51.412;5.540;2024-02-28T04:08:36;208.38;;;73.45;;
24261;SDS011;12385;51.412;5.540;2024-02-28T04:11:02;198.93;;;71.90;;
24261;SDS011;12385;51.412;5.540;2024-02-28T04:13:28;211.35;;;75.68;;
24261;SDS011;12385;51.412;5.540;2024-02-28T04:15:54;192.93;;;70.43;;
24261;SDS011;12385;51.412;5.540;2024-02-28T04:18:20;198.68;;;71.43;;
24261;SDS011;12385;51.412;5.540;2024-02-28T04:20:46;192.63;;;73.75;;
24261;SDS011;12385;51.412;5.540;2024-02-28T04:23:12;185.90;;;71.10;;
24261;SDS011;12385;51.412;5.540;2024-02-28T04:25:38;207.02;;;75.95;;
24261;SDS011;12385;51.412;5.540;2024-02-28T04:28:05;215.00;;;76.03;;
24261;SDS011;12385;51.412;5.540;2024-02-28T04:30:32;177.23;;;69.28;;
24261;SDS011;12385;51.412;5.540;2024-02-28T04:32:58;201.05;;;74.10;;
24261;SDS011;12385;51.412;5.540;2024-02-28T04:35:24;192.60;;;70.60;;
24261;SDS011;12385;51.412;5.540;2024-02-28T04:37:50;201.88;;;72.65;;
24261;SDS011;12385;51.412;5.540;2024-02-28T04:40:16;200.38;;;75.55;;
24261;SDS011;12385;51.412;5.540;2024-02-28T04:42:42;198.48;;;74.43;;
24261;SDS011;12385;51.412;5.540;2024-02-28T04:45:10;192.40;;;73.27;;
24261;SDS011;12385;51.412;5.540;2024-02-28T04:47:36;184.50;;;72.95;;
24261;SDS011;12385;51.412;5.540;2024-02-28T04:50:03;173.50;;;68.97;;
24261;SDS011;12385;51.412;5.540;2024-02-28T04:52:30;185.60;;;72.55;;
24261;SDS011;12385;51.412;5.540;2024-02-28T04:54:56;178.48;;;69.55;;
24261;SDS011;12385;51.412;5.540;2024-02-28T04:57:25;171.63;;;69.22;;
24261;SDS011;12385;51.412;5.540;2024-02-28T04:59:54;164.97;;;66.33;;
24261;SDS011;12385;51.412;5.540;2024-02-28T05:04:51;152.65;;;62.40;;
24261;SDS011;12385;51.412;5.540;2024-02-28T05:07:19;161.95;;;68.50;;
24261;SDS011;12385;51.412;5.540;2024-02-28T05:09:45;150.25;;;65.78;;
24261;SDS011;12385;51.412;5.540;2024-02-28T05:12:11;154.10;;;65.35;;
24261;SDS011;12385;51.412;5.540;2024-02-28T05:14:37;174.23;;;70.15;;
24261;SDS011;12385;51.412;5.540;2024-02-28T05:17:03;167.20;;;69.05;;
24261;SDS011;12385;51.412;5.540;2024-02-28T05:19:29;170.82;;;70.75;;
24261;SDS011;12385;51.412;5.540;2024-02-28T05:21:55;164.55;;;70.57;;
24261;SDS011;12385;51.412;5.540;2024-02-28T05:24:21;161.82;;;70.25;;
24261;SDS011;12385;51.412;5.540;2024-02-28T05:26:50;156.35;;;66.47;;
24261;SDS011;12385;51.412;5.540;2024-02-28T05:29:15;153.10;;;64.55;;
24261;SDS011;12385;51.412;5.540;2024-02-28T05:31:41;168.63;;;69.88;;
24261;SDS011;12385;51.412;5.540;2024-02-28T05:34:06;164.20;;;69.82;;
24261;SDS011;12385;51.412;5.540;2024-02-28T05:36:32;166.98;;;68.45;;
24261;SDS011;12385;51.412;5.540;2024-02-28T05:38:59;180.93;;;72.80;;
24261;SDS011;12385;51.412;5.540;2024-02-28T05:41:27;187.02;;;73.25;;
24261;SDS011;12385;51.412;5.540;2024-02-28T05:43:54;172.93;;;70.72;;
24261;SDS011;12385;51.412;5.540;2024-02-28T05:46:21;146.00;;;63.10;;
24261;SDS011;12385;51.412;5.540;2024-02-28T05:48:49;177.18;;;70.28;;
24261;SDS011;12385;51.412;5.540;2024-02-28T05:51:15;157.88;;;67.80;;
24261;SDS011;12385;51.412;5.540;2024-02-28T05:53:41;170.02;;;70.28;;
24261;SDS011;12385;51.412;5.540;2024-02-28T05:56:08;168.35;;;69.55;;
24261;SDS011;12385;51.412;5.540;2024-02-28T05:58:42;177.73;;;70.53;;
24261;SDS011;12385;51.412;5.540;2024-02-28T06:01:09;172.52;;;70.35;;
24261;SDS011;12385;51.412;5.540;2024-02-28T06:03:36;158.68;;;68.57;;
24261;SDS011;12385;51.412;5.540;2024-02-28T06:06:02;168.70;;;69.97;;
24261;SDS011;12385;51.412;5.540;2024-02-28T06:08:33;161.32;;;68.32;;
24261;SDS011;12385;51.412;5.540;2024-02-28T06:11:00;152.98;;;67.97;;
24261;SDS011;12385;51.412;5.540;2024-02-28T06:13:29;150.90;;;65.47;;
24261;SDS011;12385;51.412;5.540;2024-02-28T06:15:55;153.52;;;69.20;;
24261;SDS011;12385;51.412;5.540;2024-02-28T06:18:24;165.18;;;67.25;;
24261;SDS011;12385;51.412;5.540;2024-02-28T06:20:58;150.98;;;65.82;;
24261;SDS011;12385;51.412;5.540;2024-02-28T06:23:24;141.00;;;65.82;;
24261;SDS011;12385;51.412;5.540;2024-02-28T06:25:50;138.73;;;64.22;;
24261;SDS011;12385;51.412;5.540;2024-02-28T06:28:16;139.52;;;65.00;;
24261;SDS011;12385;51.412;5.540;2024-02-28T06:30:42;143.00;;;66.65;;
24261;SDS011;12385;51.412;5.540;2024-02-28T06:33:11;137.48;;;63.10;;
24261;SDS011;12385;51.412;5.540;2024-02-28T06:35:37;138.13;;;63.35;;
24261;SDS011;12385;51.412;5.540;2024-02-28T06:38:03;133.77;;;65.47;;
24261;SDS011;12385;51.412;5.540;2024-02-28T06:40:29;145.02;;;65.00;;
24261;SDS011;12385;51.412;5.540;2024-02-28T06:42:55;145.77;;;66.25;;
24261;SDS011;12385;51.412;5.540;2024-02-28T06:45:21;146.05;;;66.30;;
24261;SDS011;12385;51.412;5.540;2024-02-28T06:47:47;136.77;;;63.70;;
24261;SDS011;12385;51.412;5.540;2024-02-28T06:50:13;135.52;;;63.50;;
24261;SDS011;12385;51.412;5.540;2024-02-28T06:52:40;125.93;;;60.70;;
24261;SDS011;12385;51.412;5.540;2024-02-28T06:55:07;129.65;;;62.03;;
24261;SDS011;12385;51.412;5.540;2024-02-28T06:57:35;132.07;;;60.53;;
24261;SDS011;12385;51.412;5.540;2024-02-28T07:00:02;135.45;;;63.78;;
24261;SDS011;12385;51.412;5.540;2024-02-28T07:02:29;127.43;;;61.22;;
24261;SDS011;12385;51.412;5.540;2024-02-28T07:04:55;133.60;;;63.90;;
24261;SDS011;12385;51.412;5.540;2024-02-28T07:07:21;134.38;;;61.15;;
24261;SDS011;12385;51.412;5.540;2024-02-28T07:09:46;131.25;;;61.97;;
24261;SDS011;12385;51.412;5.540;2024-02-28T07:12:12;140.95;;;64.28;;
24261;SDS011;12385;51.412;5.540;2024-02-28T07:14:38;138.98;;;63.55;;
24261;SDS011;12385;51.412;5.540;2024-02-28T07:17:03;133.77;;;62.80;;
24261;SDS011;12385;51.412;5.540;2024-02-28T07:19:32;128.57;;;60.13;;
24261;SDS011;12385;51.412;5.540;2024-02-28T07:21:57;134.00;;;63.05;;
24261;SDS011;12385;51.412;5.540;2024-02-28T07:24:24;139.00;;;63.05;;
24261;SDS011;12385;51.412;5.540;2024-02-28T07:26:50;136.35;;;60.78;;
24261;SDS011;12385;51.412;5.540;2024-02-28T07:29:16;139.23;;;64.18;;
24261;SDS011;12385;51.412;5.540;2024-02-28T07:31:41;132.18;;;62.22;;
24261;SDS011;12385;51.412;5.540;2024-02-28T07:34:07;129.30;;;61.53;;
24261;SDS011;12385;51.412;5.540;2024-02-28T07:36:33;132.90;;;63.58;;
24261;SDS011;12385;51.412;5.540;2024-02-28T07:38:59;132.13;;;61.97;;
24261;SDS011;12385;51.412;5.540;2024-02-28T07:41:25;129.73;;;60.38;;
24261;SDS011;12385;51.412;5.540;2024-02-28T07:43:50;133.73;;;63.15;;
24261;SDS011;12385;51.412;5.540;2024-02-28T07:46:16;133.73;;;61.97;;
24261;SDS011;12385;51.412;5.540;2024-02-28T07:48:42;137.90;;;63.13;;
24261;SDS011;12385;51.412;5.540;2024-02-28T07:51:08;139.38;;;63.33;;
24261;SDS011;12385;51.412;5.540;2024-02-28T07:53:34;132.50;;;60.40;;
24261;SDS011;12385;51.412;5.540;2024-02-28T07:56:00;128.48;;;58.13;;
24261;SDS011;12385;51.412;5.540;2024-02-28T07:58:26;127.80;;;60.03;;
24261;SDS011;12385;51.412;5.540;2024-02-28T08:00:56;120.68;;;56.88;;
24261;SDS011;12385;51.412;5.540;2024-02-28T08:03:23;119.32;;;57.58;;
24261;SDS011;12385;51.412;5.540;2024-02-28T08:05:49;118.60;;;58.47;;
24261;SDS011;12385;51.412;5.540;2024-02-28T08:08:15;129.30;;;59.58;;
24261;SDS011;12385;51.412;5.540;2024-02-28T08:10:40;122.18;;;57.90;;
24261;SDS011;12385;51.412;5.540;2024-02-28T08:13:06;111.05;;;54.42;;
24261;SDS011;12385;51.412;5.540;2024-02-28T08:15:32;115.60;;;55.78;;
24261;SDS011;12385;51.412;5.540;2024-02-28T08:17:58;115.68;;;56.13;;
24261;SDS011;12385;51.412;5.540;2024-02-28T08:20:24;114.72;;;55.75;;
24261;SDS011;12385;51.412;5.540;2024-02-28T08:22:51;117.35;;;55.55;;
24261;SDS011;12385;51.412;5.540;2024-02-28T08:25:24;107.50;;;53.85;;
24261;SDS011;12385;51.412;5.540;2024-02-28T08:27:50;102.18;;;52.45;;
24261;SDS011;12385;51.412;5.540;2024-02-28T08:30:19;104.70;;;53.45;;
24261;SDS011;12385;51.412;5.540;2024-02-28T08:32:45;94.70;;;50.60;;
24261;SDS011;12385;51.412;5.540;2024-02-28T08:35:11;101.40;;;51.70;;
24261;SDS011;12385;51.412;5.540;2024-02-28T08:37:40;98.82;;;50.65;;
24261;SDS011;12385;51.412;5.540;2024-02-28T08:40:06;110.28;;;52.53;;
24261;SDS011;12385;51.412;5.540;2024-02-28T08:42:33;100.57;;;52.50;;
24261;SDS011;12385;51.412;5.540;2024-02-28T08:44:59;95.63;;;49.88;;
24261;SDS011;12385;51.412;5.540;2024-02-28T08:47:25;90.20;;;48.80;;
24261;SDS011;12385;51.412;5.540;2024-02-28T08:49:52;91.32;;;50.05;;
24261;SDS011;12385;51.412;5.540;2024-02-28T08:52:20;86.82;;;47.10;;
24261;SDS011;12385;51.412;5.540;2024-02-28T08:54:47;86.85;;;47.10;;
24261;SDS011;12385;51.412;5.540;2024-02-28T08:57:13;91.10;;;47.55;;
24261;SDS011;12385;51.412;5.540;2024-02-28T08:59:39;89.88;;;47.47;;
24261;SDS011;12385;51.412;5.540;2024-02-28T09:02:05;95.97;;;50.25;;
24261;SDS011;12385;51.412;5.540;2024-02-28T09:04:36;78.90;;;45.92;;
24261;SDS011;12385;51.412;5.540;2024-02-28T09:07:01;85.70;;;47.88;;
24261;SDS011;12385;51.412;5.540;2024-02-28T09:09:27;81.50;;;46.65;;
24261;SDS011;12385;51.412;5.540;2024-02-28T09:11:55;75.50;;;43.30;;
24261;SDS011;12385;51.412;5.540;2024-02-28T09:14:24;77.97;;;44.92;;
24261;SDS011;12385;51.412;5.540;2024-02-28T09:16:50;73.18;;;44.53;;
24261;SDS011;12385;51.412;5.540;2024-02-28T09:19:16;72.28;;;43.90;;
24261;SDS011;12385;51.412;5.540;2024-02-28T09:21:42;66.50;;;41.90;;
24261;SDS011;12385;51.412;5.540;2024-02-28T09:24:08;72.07;;;41.40;;
24261;SDS011;12385;51.412;5.540;2024-02-28T09:26:33;75.50;;;40.13;;
24261;SDS011;12385;51.412;5.540;2024-02-28T09:29:03;73.53;;;41.60;;
24261;SDS011;12385;51.412;5.540;2024-02-28T09:31:29;66.70;;;40.03;;
24261;SDS011;12385;51.412;5.540;2024-02-28T09:33:55;61.72;;;38.85;;
24261;SDS011;12385;51.412;5.540;2024-02-28T09:36:25;65.05;;;38.40;;
24261;SDS011;12385;51.412;5.540;2024-02-28T09:38:51;61.60;;;36.35;;
24261;SDS011;12385;51.412;5.540;2024-02-28T09:41:16;57.97;;;36.85;;
24261;SDS011;12385;51.412;5.540;2024-02-28T09:43:43;59.63;;;36.97;;
24261;SDS011;12385;51.412;5.540;2024-02-28T09:46:11;60.25;;;35.33;;
24261;SDS011;12385;51.412;5.540;2024-02-28T09:48:41;58.17;;;34.97;;
24261;SDS011;12385;51.412;5.540;2024-02-28T09:51:08;57.55;;;35.13;;
24261;SDS011;12385;51.412;5.540;2024-02-28T09:53:35;60.97;;;34.58;;
24261;SDS011;12385;51.412;5.540;2024-02-28T09:56:02;59.88;;;35.42;;
24261;SDS011;12385;51.412;5.540;2024-02-28T09:58:28;55.67;;;34.38;;
24261;SDS011;12385;51.412;5.540;2024-02-28T10:00:58;58.50;;;34.35;;
24261;SDS011;12385;51.412;5.540;2024-02-28T10:03:28;56.03;;;34.28;;
24261;SDS011;12385;51.412;5.540;2024-02-28T10:05:57;54.30;;;31.20;;
24261;SDS011;12385;51.412;5.540;2024-02-28T10:10:51;49.30;;;30.75;;
24261;SDS011;12385;51.412;5.540;2024-02-28T10:13:24;50.72;;;30.77;;
24261;SDS011;12385;51.412;5.540;2024-02-28T10:15:50;49.40;;;30.85;;
24261;SDS011;12385;51.412;5.540;2024-02-28T10:18:16;47.20;;;30.67;;
24261;SDS011;12385;51.412;5.540;2024-02-28T10:20:41;49.58;;;30.75;;
24261;SDS011;12385;51.412;5.540;2024-02-28T10:23:07;49.38;;;29.77;;
24261;SDS011;12385;51.412;5.540;2024-02-28T10:28:12;45.65;;;28.90;;
24261;SDS011;12385;51.412;5.540;2024-02-28T10:30:43;52.47;;;27.70;;
24261;SDS011;12385;51.412;5.540;2024-02-28T10:33:12;46.38;;;28.90;;
24261;SDS011;12385;51.412;5.540;2024-02-28T10:35:41;45.38;;;27.65;;
24261;SDS011;12385;51.412;5.540;2024-02-28T10:38:11;48.78;;;28.63;;
24261;SDS011;12385;51.412;5.540;2024-02-28T10:40:41;47.75;;;29.00;;
24261;SDS011;12385;51.412;5.540;2024-02-28T10:43:10;46.13;;;28.15;;
24261;SDS011;12385;51.412;5.540;2024-02-28T10:45:39;51.07;;;29.73;;
24261;SDS011;12385;51.412;5.540;2024-02-28T10:48:05;46.88;;;29.00;;
24261;SDS011;12385;51.412;5.540;2024-02-28T10:50:32;47.10;;;29.40;;
24261;SDS011;12385;51.412;5.540;2024-02-28T10:53:00;49.78;;;29.25;;
24261;SDS011;12385;51.412;5.540;2024-02-28T10:55:30;49.25;;;29.52;;
24261;SDS011;12385;51.412;5.540;2024-02-28T10:58:01;50.25;;;27.48;;
24261;SDS011;12385;51.412;5.540;2024-02-28T11:00:41;44.75;;;28.58;;
24261;SDS011;12385;51.412;5.540;2024-02-28T11:03:12;47.47;;;28.05;;
24261;SDS011;12385;51.412;5.540;2024-02-28T11:05:42;46.50;;;27.05;;
24261;SDS011;12385;51.412;5.540;2024-02-28T11:08:11;45.95;;;27.48;;
24261;SDS011;12385;51.412;5.540;2024-02-28T11:10:56;48.33;;;25.88;;
24261;SDS011;12385;51.412;5.540;2024-02-28T11:13:27;38.28;;;25.17;;
24261;SDS011;12385;51.412;5.540;2024-02-28T11:18:20;33.92;;;22.83;;
24261;SDS011;12385;51.412;5.540;2024-02-28T11:20:46;39.45;;;23.45;;
24261;SDS011;12385;51.412;5.540;2024-02-28T11:23:14;36.05;;;21.73;;
24261;SDS011;12385;51.412;5.540;2024-02-28T11:25:42;38.67;;;22.30;;
24261;SDS011;12385;51.412;5.540;2024-02-28T11:28:08;37.75;;;22.38;;
24261;SDS011;12385;51.412;5.540;2024-02-28T11:30:34;35.20;;;21.25;;
24261;SDS011;12385;51.412;5.540;2024-02-28T11:32:59;35.40;;;21.42;;
24261;SDS011;12385;51.412;5.540;2024-02-28T11:35:28;34.47;;;20.80;;
24261;SDS011;12385;51.412;5.540;2024-02-28T11:37:54;35.80;;;21.40;;
24261;SDS011;12385;51.412;5.540;2024-02-28T11:40:24;37.83;;;20.75;;
24261;SDS011;12385;51.412;5.540;2024-02-28T11:42:56;41.45;;;21.35;;
24261;SDS011;12385;51.412;5.540;2024-02-28T11:45:24;37.45;;;21.77;;
24261;SDS011;12385;51.412;5.540;2024-02-28T11:47:50;40.45;;;22.70;;
24261;SDS011;12385;51.412;5.540;2024-02-28T11:50:19;37.20;;;22.65;;
24261;SDS011;12385;51.412;5.540;2024-02-28T11:52:45;39.97;;;22.85;;
24261;SDS011;12385;51.412;5.540;2024-02-28T11:55:10;36.33;;;23.23;;
24261;SDS011;12385;51.412;5.540;2024-02-28T11:57:37;41.72;;;24.65;;
24261;SDS011;12385;51.412;5.540;2024-02-28T12:00:06;41.92;;;23.67;;
24261;SDS011;12385;51.412;5.540;2024-02-28T12:02:32;36.20;;;23.08;;
24261;SDS011;12385;51.412;5.540;2024-02-28T12:05:04;35.83;;;22.20;;
24261;SDS011;12385;51.412;5.540;2024-02-28T12:07:31;40.97;;;23.67;;
24261;SDS011;12385;51.412;5.540;2024-02-28T12:09:58;42.75;;;21.98;;
24261;SDS011;12385;51.412;5.540;2024-02-28T12:12:29;39.85;;;22.17;;
24261;SDS011;12385;51.412;5.540;2024-02-28T12:14:58;37.15;;;20.83;;
24261;SDS011;12385;51.412;5.540;2024-02-28T12:17:30;38.15;;;22.65;;
24261;SDS011;12385;51.412;5.540;2024-02-28T12:19:56;38.60;;;22.95;;
24261;SDS011;12385;51.412;5.540;2024-02-28T12:22:24;40.35;;;22.17;;
24261;SDS011;12385;51.412;5.540;2024-02-28T12:24:50;38.85;;;22.58;;
24261;SDS011;12385;51.412;5.540;2024-02-28T12:27:15;38.83;;;23.55;;
24261;SDS011;12385;51.412;5.540;2024-02-28T12:29:41;44.13;;;23.17;;
24261;SDS011;12385;51.412;5.540;2024-02-28T12:32:07;42.10;;;24.08;;
24261;SDS011;12385;51.412;5.540;2024-02-28T12:34:33;38.55;;;21.33;;
24261;SDS011;12385;51.412;5.540;2024-02-28T12:36:59;35.97;;;19.73;;
24261;SDS011;12385;51.412;5.540;2024-02-28T12:39:26;34.15;;;19.45;;
24261;SDS011;12385;51.412;5.540;2024-02-28T12:41:53;29.95;;;19.13;;
24261;SDS011;12385;51.412;5.540;2024-02-28T12:44:20;34.05;;;18.88;;
24261;SDS011;12385;51.412;5.540;2024-02-28T12:46:45;34.20;;;19.23;;
24261;SDS011;12385;51.412;5.540;2024-02-28T12:49:11;37.58;;;20.65;;
24261;SDS011;12385;51.412;5.540;2024-02-28T12:51:41;40.15;;;20.45;;
24261;SDS011;12385;51.412;5.540;2024-02-28T12:54:09;36.25;;;19.55;;
24261;SDS011;12385;51.412;5.540;2024-02-28T12:56:35;33.08;;;19.80;;
24261;SDS011;12385;51.412;5.540;2024-02-28T12:59:02;34.15;;;19.08;;
24261;SDS011;12385;51.412;5.540;2024-02-28T13:01:28;30.13;;;17.67;;
24261;SDS011;12385;51.412;5.540;2024-02-28T13:03:55;32.15;;;17.58;;
24261;SDS011;12385;51.412;5.540;2024-02-28T13:06:21;29.33;;;17.00;;
24261;SDS011;12385;51.412;5.540;2024-02-28T13:08:49;31.77;;;17.27;;
24261;SDS011;12385;51.412;5.540;2024-02-28T13:11:21;30.67;;;17.30;;
24261;SDS011;12385;51.412;5.540;2024-02-28T13:13:49;28.27;;;17.52;;
24261;SDS011;12385;51.412;5.540;2024-02-28T13:16:16;27.67;;;16.73;;
24261;SDS011;12385;51.412;5.540;2024-02-28T13:18:42;26.30;;;15.88;;
24261;SDS011;12385;51.412;5.540;2024-02-28T13:21:08;27.33;;;15.93;;
24261;SDS011;12385;51.412;5.540;2024-02-28T13:23:37;24.75;;;14.63;;
24261;SDS011;12385;51.412;5.540;2024-02-28T13:26:03;28.23;;;14.95;;
24261;SDS011;12385;51.412;5.540;2024-02-28T13:28:29;27.45;;;14.48;;
24261;SDS011;12385;51.412;5.540;2024-02-28T13:30:59;24.92;;;14.63;;
24261;SDS011;12385;51.412;5.540;2024-02-28T13:33:25;22.52;;;14.45;;
24261;SDS011;12385;51.412;5.540;2024-02-28T13:35:54;24.00;;;14.38;;
24261;SDS011;12385;51.412;5.540;2024-02-28T13:38:20;21.85;;;14.35;;
24261;SDS011;12385;51.412;5.540;2024-02-28T13:40:46;26.50;;;14.57;;
24261;SDS011;12385;51.412;5.540;2024-02-28T13:43:12;27.63;;;14.25;;
24261;SDS011;12385;51.412;5.540;2024-02-28T13:45:38;22.92;;;13.25;;
24261;SDS011;12385;51.412;5.540;2024-02-28T13:48:20;22.42;;;14.13;;
24261;SDS011;12385;51.412;5.540;2024-02-28T13:50:53;20.90;;;13.35;;
24261;SDS011;12385;51.412;5.540;2024-02-28T13:53:20;21.95;;;13.45;;
24261;SDS011;12385;51.412;5.540;2024-02-28T13:55:46;23.48;;;13.32;;
24261;SDS011;12385;51.412;5.540;2024-02-28T13:58:12;22.50;;;12.88;;
24261;SDS011;12385;51.412;5.540;2024-02-28T14:00:38;21.95;;;12.95;;
24261;SDS011;12385;51.412;5.540;2024-02-28T14:03:04;21.02;;;12.65;;
24261;SDS011;12385;51.412;5.540;2024-02-28T14:05:34;20.15;;;12.27;;
24261;SDS011;12385;51.412;5.540;2024-02-28T14:08:00;20.73;;;12.00;;
24261;SDS011;12385;51.412;5.540;2024-02-28T14:10:28;18.80;;;12.40;;
24261;SDS011;12385;51.412;5.540;2024-02-28T14:12:55;20.85;;;12.02;;
24261;SDS011;12385;51.412;5.540;2024-02-28T14:15:23;16.90;;;10.30;;
24261;SDS011;12385;51.412;5.540;2024-02-28T14:17:50;16.50;;;10.40;;
24261;SDS011;12385;51.412;5.540;2024-02-28T14:20:18;15.05;;;9.85;;
24261;SDS011;12385;51.412;5.540;2024-02-28T14:22:44;17.17;;;9.85;;
24261;SDS011;12385;51.412;5.540;2024-02-28T14:25:16;17.02;;;9.80;;